createdAt,value
2018-09-30T00:02:07.235Z,99.90
2018-09-30T00:04:35.697Z,99.90
2018-09-30T00:07:04.219Z,99.90
2018-09-30T00:09:32.790Z,99.90
2018-09-30T00:12:02.620Z,99.90
2018-09-30T00:14:31.162Z,99.90
2018-09-30T00:17:00.015Z,99.90
2018-09-30T00:19:28.570Z,99.90
2018-09-30T00:21:57.003Z,99.90
2018-09-30T00:24:30.775Z,99.90
2018-09-30T00:27:00.720Z,99.90
2018-09-30T00:29:30.102Z,99.90
2018-09-30T00:31:59.359Z,99.90
2018-09-30T00:34:28.906Z,99.90
2018-09-30T00:36:58.497Z,99.90
2018-09-30T00:39:27.613Z,99.90
2018-09-30T00:41:56.151Z,99.90
2018-09-30T00:44:25.199Z,99.90
2018-09-30T00:46:54.063Z,99.90
2018-09-30T00:49:22.582Z,99.90
2018-09-30T00:51:51.052Z,99.90
2018-09-30T00:54:19.870Z,99.90
2018-09-30T00:56:48.351Z,99.90
2018-09-30T00:59:16.826Z,99.90
2018-09-30T01:01:45.319Z,99.90
2018-09-30T01:04:13.782Z,99.90
2018-09-30T01:06:42.239Z,99.90
2018-09-30T01:09:12.958Z,99.90
2018-09-30T01:11:41.835Z,99.90
2018-09-30T01:14:10.326Z,99.90
2018-09-30T01:16:39.276Z,99.90
2018-09-30T01:19:07.766Z,99.90
2018-09-30T01:21:36.672Z,99.90
2018-09-30T01:24:05.306Z,99.90
2018-09-30T01:26:33.806Z,99.90
2018-09-30T01:29:02.286Z,99.90
2018-09-30T01:31:30.774Z,99.90
2018-09-30T01:33:59.250Z,99.90
2018-09-30T01:36:27.792Z,99.90
2018-09-30T01:38:56.297Z,99.90
2018-09-30T01:41:25.029Z,99.90
2018-09-30T01:43:53.493Z,99.90
2018-09-30T01:46:21.991Z,99.90
2018-09-30T01:48:50.434Z,99.90
2018-09-30T01:51:18.925Z,99.90
2018-09-30T01:53:47.394Z,99.90
2018-09-30T01:56:15.896Z,99.90
2018-09-30T01:58:44.367Z,99.90
2018-09-30T02:01:12.999Z,99.90
2018-09-30T02:03:41.591Z,99.90
2018-09-30T02:06:10.136Z,99.90
2018-09-30T02:08:38.605Z,99.90
2018-09-30T02:11:07.193Z,99.90
2018-09-30T02:13:35.695Z,99.90
2018-09-30T02:16:04.162Z,99.90
2018-09-30T02:18:32.652Z,99.90
2018-09-30T02:21:01.112Z,99.90
2018-09-30T02:23:29.593Z,99.90
2018-09-30T02:25:58.062Z,99.90
2018-09-30T02:28:26.544Z,99.90
2018-09-30T02:30:54.996Z,99.90
2018-09-30T02:33:23.474Z,99.90
2018-09-30T02:35:51.950Z,99.90
2018-09-30T02:38:20.809Z,99.90
2018-09-30T02:40:49.392Z,99.90
2018-09-30T02:43:17.935Z,99.90
2018-09-30T02:45:46.400Z,99.90
2018-09-30T02:48:15.096Z,99.90
2018-09-30T02:50:43.617Z,99.90
2018-09-30T02:53:12.210Z,99.90
2018-09-30T02:55:40.689Z,99.90
2018-09-30T02:58:09.236Z,99.90
2018-09-30T03:00:37.708Z,99.90
2018-09-30T03:03:06.261Z,99.90
2018-09-30T03:05:34.747Z,99.90
2018-09-30T03:08:08.473Z,99.90
2018-09-30T03:10:36.947Z,99.90
2018-09-30T03:13:05.469Z,99.90
2018-09-30T03:15:33.959Z,99.90
2018-09-30T03:18:02.449Z,99.90
2018-09-30T03:20:30.934Z,99.90
2018-09-30T03:22:59.464Z,99.90
2018-09-30T03:25:27.929Z,99.90
2018-09-30T03:27:56.416Z,99.90
2018-09-30T03:30:24.887Z,99.90
2018-09-30T03:32:53.381Z,99.90
2018-09-30T03:35:21.843Z,99.90
2018-09-30T03:37:50.956Z,99.90
2018-09-30T03:40:19.478Z,99.90
2018-09-30T03:42:48.005Z,99.90
2018-09-30T03:45:16.466Z,99.90
2018-09-30T03:47:44.954Z,99.90
2018-09-30T03:50:13.432Z,99.90
2018-09-30T03:52:41.932Z,99.90
2018-09-30T03:55:10.407Z,99.90
2018-09-30T03:57:38.895Z,99.90
2018-09-30T04:00:07.912Z,99.90
2018-09-30T04:02:36.410Z,99.90
2018-09-30T04:05:04.939Z,99.90
2018-09-30T04:07:33.450Z,99.90
2018-09-30T04:10:02.090Z,99.90
2018-09-30T04:12:30.547Z,99.90
2018-09-30T04:14:59.076Z,99.90
2018-09-30T04:17:27.563Z,99.90
2018-09-30T04:19:56.020Z,99.90
2018-09-30T04:22:24.495Z,99.90
2018-09-30T04:24:52.968Z,99.90
2018-09-30T04:27:21.474Z,99.90
2018-09-30T04:29:49.971Z,99.90
2018-09-30T04:32:18.718Z,99.90
2018-09-30T04:34:47.230Z,99.90
2018-09-30T04:37:15.688Z,99.90
2018-09-30T04:39:44.194Z,99.90
2018-09-30T04:42:12.647Z,99.90
2018-09-30T04:44:41.113Z,99.90
2018-09-30T04:47:09.582Z,99.90
2018-09-30T04:49:38.043Z,99.90
2018-09-30T04:52:06.748Z,99.90
2018-09-30T04:54:35.247Z,99.90
2018-09-30T04:57:03.724Z,99.90
2018-09-30T04:59:32.199Z,99.90
2018-09-30T05:02:00.680Z,99.90
2018-09-30T05:04:29.946Z,99.90
2018-09-30T05:06:58.448Z,99.90
2018-09-30T05:09:26.946Z,99.90
2018-09-30T05:11:55.465Z,99.90
2018-09-30T05:14:23.969Z,99.90
2018-09-30T05:16:52.464Z,99.90
2018-09-30T05:19:20.918Z,99.90
2018-09-30T05:21:49.426Z,99.90
2018-09-30T05:24:17.903Z,99.90
2018-09-30T05:26:46.389Z,99.90
2018-09-30T05:29:14.865Z,99.90
2018-09-30T05:31:43.376Z,99.90
2018-09-30T05:34:11.830Z,99.90
2018-09-30T05:36:41.198Z,99.90
2018-09-30T05:39:10.853Z,99.90
2018-09-30T05:41:39.339Z,99.90
2018-09-30T05:44:08.733Z,99.90
2018-09-30T05:46:37.215Z,99.90
2018-09-30T05:49:05.821Z,99.90
2018-09-30T05:51:34.533Z,99.90
2018-09-30T05:54:03.035Z,99.90
2018-09-30T05:56:31.485Z,99.90
2018-09-30T05:58:59.959Z,99.90
2018-09-30T06:01:28.447Z,99.90
2018-09-30T06:03:56.955Z,99.90
2018-09-30T06:06:25.476Z,99.90
2018-09-30T06:08:54.000Z,99.90
2018-09-30T06:11:22.460Z,99.90
2018-09-30T06:13:51.017Z,99.90
2018-09-30T06:16:19.488Z,99.90
2018-09-30T06:18:47.965Z,99.90
2018-09-30T06:21:16.437Z,99.90
2018-09-30T06:23:45.035Z,99.90
2018-09-30T06:26:13.579Z,99.90
2018-09-30T06:28:42.137Z,99.90
2018-09-30T06:31:10.829Z,99.90
2018-09-30T06:33:39.313Z,99.90
2018-09-30T06:36:07.739Z,99.90
2018-09-30T06:38:36.237Z,99.90
2018-09-30T06:41:05.701Z,99.90
2018-09-30T06:43:34.218Z,99.90
2018-09-30T06:46:03.369Z,99.90
2018-09-30T06:48:31.908Z,99.90
2018-09-30T06:51:00.576Z,99.90
2018-09-30T06:53:29.070Z,99.90
2018-09-30T06:55:58.681Z,99.90
2018-09-30T06:58:27.648Z,99.90
2018-09-30T07:00:56.132Z,99.90
2018-09-30T07:03:24.664Z,99.90
2018-09-30T07:05:53.107Z,99.90
2018-09-30T07:08:21.699Z,99.90
2018-09-30T07:10:50.168Z,99.90
2018-09-30T07:13:18.641Z,99.90
2018-09-30T07:15:47.114Z,99.90
2018-09-30T07:18:15.922Z,99.90
2018-09-30T07:20:44.419Z,99.90
2018-09-30T07:23:12.905Z,99.90
2018-09-30T07:25:41.380Z,99.90
2018-09-30T07:28:10.027Z,99.90
2018-09-30T07:30:38.639Z,99.90
2018-09-30T07:33:07.248Z,99.90
2018-09-30T07:35:35.771Z,99.90
2018-09-30T07:38:04.425Z,99.90
2018-09-30T07:40:34.451Z,99.90
2018-09-30T07:43:03.449Z,99.90
2018-09-30T07:45:33.023Z,99.90
2018-09-30T07:48:01.873Z,99.90
2018-09-30T07:50:30.526Z,99.90
2018-09-30T07:52:59.603Z,99.90
2018-09-30T07:55:28.246Z,99.90
2018-09-30T07:57:56.760Z,99.90
2018-09-30T08:00:28.619Z,99.90
2018-09-30T08:02:57.660Z,99.90
2018-09-30T08:05:29.635Z,99.90
2018-09-30T08:07:58.156Z,99.90
2018-09-30T08:10:27.045Z,99.90
2018-09-30T08:12:55.697Z,99.90
2018-09-30T08:15:24.888Z,99.90
2018-09-30T08:17:54.148Z,99.90
2018-09-30T08:20:22.931Z,99.90
2018-09-30T08:22:52.082Z,99.90
2018-09-30T08:25:21.374Z,99.90
2018-09-30T08:27:50.704Z,99.90
2018-09-30T08:30:19.336Z,99.90
2018-09-30T08:32:47.963Z,99.90
2018-09-30T08:35:17.808Z,99.90
2018-09-30T08:37:51.687Z,99.40
2018-09-30T08:40:25.613Z,98.00
2018-09-30T08:42:54.617Z,97.40
2018-09-30T08:45:23.331Z,95.90
2018-09-30T08:47:53.638Z,95.20
2018-09-30T08:50:30.563Z,94.90
2018-09-30T08:53:04.451Z,93.30
2018-09-30T08:55:33.026Z,92.70
2018-09-30T08:58:01.577Z,92.60
2018-09-30T09:00:31.016Z,92.80
2018-09-30T09:03:00.605Z,93.20
2018-09-30T09:05:29.603Z,93.50
2018-09-30T09:07:58.616Z,92.50
2018-09-30T09:10:27.177Z,92.40
2018-09-30T09:12:57.054Z,92.90
2018-09-30T09:15:26.585Z,92.90
2018-09-30T09:17:56.651Z,91.90
2018-09-30T09:20:26.623Z,92.30
2018-09-30T09:22:55.931Z,91.80
2018-09-30T09:25:24.979Z,91.70
2018-09-30T09:27:54.526Z,92.10
2018-09-30T09:30:23.437Z,92.10
2018-09-30T09:32:52.276Z,92.10
2018-09-30T09:35:21.319Z,92.20
2018-09-30T09:37:49.862Z,91.90
2018-09-30T09:40:20.102Z,91.70
2018-09-30T09:42:48.598Z,91.70
2018-09-30T09:45:19.025Z,91.30
2018-09-30T09:47:55.923Z,91.20
2018-09-30T09:50:24.405Z,91.40
2018-09-30T09:52:52.910Z,91.60
2018-09-30T09:55:22.327Z,90.90
2018-09-30T09:57:50.859Z,88.90
2018-09-30T10:00:24.806Z,88.70
2018-09-30T10:02:53.325Z,89.80
2018-09-30T10:05:21.799Z,90.00
2018-09-30T10:07:50.386Z,90.20
2018-09-30T10:10:19.004Z,90.10
2018-09-30T10:12:47.725Z,88.50
2018-09-30T10:15:16.310Z,88.60
2018-09-30T10:17:44.865Z,88.20
2018-09-30T10:20:13.426Z,86.80
2018-09-30T10:22:41.903Z,86.60
2018-09-30T10:25:10.466Z,85.60
2018-09-30T10:27:38.926Z,87.10
2018-09-30T10:30:07.486Z,89.80
2018-09-30T10:32:36.155Z,89.50
2018-09-30T10:35:04.744Z,89.10
2018-09-30T10:37:33.236Z,89.50
2018-09-30T10:40:01.710Z,90.20
2018-09-30T10:42:30.707Z,90.40
2018-09-30T10:44:59.176Z,90.10
2018-09-30T10:47:27.684Z,89.70
2018-09-30T10:49:56.141Z,90.20
2018-09-30T10:52:25.628Z,90.00
2018-09-30T10:54:54.144Z,90.20
2018-09-30T10:57:22.651Z,88.80
2018-09-30T10:59:51.159Z,89.80
2018-09-30T11:02:19.694Z,88.50
2018-09-30T11:04:48.453Z,88.70
2018-09-30T11:07:16.944Z,87.80
2018-09-30T11:09:45.599Z,87.30
2018-09-30T11:12:14.362Z,87.20
2018-09-30T11:14:43.221Z,88.30
2018-09-30T11:17:11.722Z,88.90
2018-09-30T11:19:40.201Z,88.10
2018-09-30T11:22:08.706Z,88.00
2018-09-30T11:24:37.174Z,90.30
2018-09-30T11:27:05.866Z,90.00
2018-09-30T11:29:34.365Z,89.00
2018-09-30T11:32:02.962Z,89.80
2018-09-30T11:34:31.442Z,90.20
2018-09-30T11:36:59.953Z,89.50
2018-09-30T11:39:29.407Z,88.80
2018-09-30T11:41:57.881Z,86.10
2018-09-30T11:44:26.375Z,89.00
2018-09-30T11:46:54.881Z,87.30
2018-09-30T11:49:24.607Z,87.20
2018-09-30T11:51:53.149Z,87.00
2018-09-30T11:54:21.763Z,85.50
2018-09-30T11:56:50.248Z,85.50
2018-09-30T11:59:18.721Z,86.90
2018-09-30T12:01:47.199Z,86.60
2018-09-30T12:04:15.687Z,87.20
2018-09-30T12:06:44.160Z,86.60
2018-09-30T12:09:12.680Z,84.90
2018-09-30T12:11:41.169Z,84.70
2018-09-30T12:14:09.719Z,85.00
2018-09-30T12:16:38.218Z,85.10
2018-09-30T12:19:06.762Z,84.80
2018-09-30T12:21:35.234Z,85.20
2018-09-30T12:24:04.669Z,83.70
2018-09-30T12:26:33.143Z,85.20
2018-09-30T12:29:01.788Z,84.50
2018-09-30T12:31:30.305Z,84.80
2018-09-30T12:33:58.810Z,85.70
2018-09-30T12:36:27.312Z,85.90
2018-09-30T12:38:55.806Z,84.00
2018-09-30T12:41:24.293Z,84.80
2018-09-30T12:43:52.721Z,84.40
2018-09-30T12:46:21.226Z,83.70
2018-09-30T12:48:49.750Z,85.30
2018-09-30T12:51:18.264Z,84.00
2018-09-30T12:53:46.779Z,84.70
2018-09-30T12:56:15.792Z,84.00
2018-09-30T12:58:44.381Z,84.20
2018-09-30T13:01:12.878Z,84.40
2018-09-30T13:03:41.347Z,84.40
2018-09-30T13:06:09.926Z,84.30
2018-09-30T13:08:38.540Z,82.40
2018-09-30T13:11:07.139Z,82.70
2018-09-30T13:13:35.695Z,83.00
2018-09-30T13:16:04.232Z,82.80
2018-09-30T13:18:32.980Z,83.00
2018-09-30T13:21:01.995Z,82.00
2018-09-30T13:23:30.429Z,83.00
2018-09-30T13:25:58.998Z,82.30
2018-09-30T13:28:27.501Z,82.80
2018-09-30T13:30:56.075Z,81.90
2018-09-30T13:33:24.587Z,80.80
2018-09-30T13:35:58.970Z,81.70
2018-09-30T13:38:27.483Z,82.70
2018-09-30T13:40:56.150Z,83.10
2018-09-30T13:43:24.511Z,82.20
2018-09-30T13:45:53.005Z,82.50
2018-09-30T13:48:21.464Z,83.00
2018-09-30T13:50:49.967Z,81.90
2018-09-30T13:53:18.579Z,81.40
2018-09-30T13:55:47.109Z,81.90
2018-09-30T13:58:15.585Z,81.40
2018-09-30T14:00:44.162Z,80.70
2018-09-30T14:03:12.627Z,80.80
2018-09-30T14:05:41.138Z,80.40
2018-09-30T14:08:09.775Z,79.20
2018-09-30T14:10:38.516Z,79.90
2018-09-30T14:13:07.030Z,79.80
2018-09-30T14:15:35.541Z,78.30
2018-09-30T14:18:04.042Z,80.20
2018-09-30T14:20:32.532Z,79.20
2018-09-30T14:23:01.089Z,77.40
2018-09-30T14:25:29.537Z,74.30
2018-09-30T14:27:58.045Z,75.30
2018-09-30T14:30:26.533Z,77.40
2018-09-30T14:32:54.994Z,78.50
2018-09-30T14:35:23.473Z,78.40
2018-09-30T14:37:52.015Z,77.30
2018-09-30T14:40:20.491Z,77.80
2018-09-30T14:42:48.978Z,78.50
2018-09-30T14:45:17.569Z,79.10
2018-09-30T14:47:46.081Z,79.30
2018-09-30T14:50:14.746Z,80.10
2018-09-30T14:52:43.260Z,80.80
2018-09-30T14:55:11.804Z,80.30
2018-09-30T14:57:40.330Z,79.10
2018-09-30T15:00:08.895Z,80.30
2018-09-30T15:02:38.363Z,78.80
2018-09-30T15:05:08.355Z,79.40
2018-09-30T15:07:36.954Z,80.20
2018-09-30T15:10:05.482Z,78.90
2018-09-30T15:12:36.847Z,79.30
2018-09-30T15:15:08.518Z,78.90
2018-09-30T15:17:37.413Z,79.90
2018-09-30T15:20:05.933Z,78.50
2018-09-30T15:22:34.734Z,78.30
2018-09-30T15:25:03.248Z,78.70
2018-09-30T15:27:33.067Z,79.70
2018-09-30T15:30:02.424Z,79.50
2018-09-30T15:32:30.957Z,80.20
2018-09-30T15:34:59.934Z,79.90
2018-09-30T15:37:28.421Z,80.10
2018-09-30T15:39:57.506Z,80.50
2018-09-30T15:42:25.992Z,81.40
2018-09-30T15:44:54.610Z,81.90
2018-09-30T15:47:23.059Z,80.10
2018-09-30T15:49:51.579Z,79.90
2018-09-30T15:52:20.098Z,81.20
2018-09-30T15:54:48.589Z,80.50
2018-09-30T15:57:17.061Z,81.00
2018-09-30T15:59:45.842Z,80.20
2018-09-30T16:02:14.310Z,81.30
2018-09-30T16:04:42.913Z,81.30
2018-09-30T16:07:11.308Z,81.20
2018-09-30T16:09:39.815Z,81.60
2018-09-30T16:12:08.370Z,81.70
2018-09-30T16:14:37.864Z,81.70
2018-09-30T16:17:06.428Z,81.40
2018-09-30T16:19:34.933Z,82.20
2018-09-30T16:22:03.531Z,82.00
2018-09-30T16:24:32.181Z,80.00
2018-09-30T16:27:00.693Z,80.30
2018-09-30T16:29:29.185Z,80.30
2018-09-30T16:31:57.661Z,79.60
2018-09-30T16:34:26.115Z,79.90
2018-09-30T16:36:54.621Z,79.40
2018-09-30T16:39:23.133Z,79.50
2018-09-30T16:41:51.606Z,79.70
2018-09-30T16:44:20.218Z,79.80
2018-09-30T16:46:48.708Z,80.20
2018-09-30T16:49:17.220Z,80.40
2018-09-30T16:51:45.850Z,80.80
2018-09-30T16:54:14.376Z,81.00
2018-09-30T16:56:43.123Z,82.30
2018-09-30T16:59:11.921Z,82.70
2018-09-30T17:01:40.451Z,84.30
2018-09-30T17:04:08.921Z,85.00
2018-09-30T17:06:37.458Z,85.80
2018-09-30T17:09:06.772Z,86.80
2018-09-30T17:11:35.332Z,87.60
2018-09-30T17:14:03.859Z,87.50
2018-09-30T17:16:32.508Z,87.90
2018-09-30T17:19:01.668Z,87.80
2018-09-30T17:21:30.337Z,88.40
2018-09-30T17:23:58.868Z,89.00
2018-09-30T17:26:34.353Z,89.30
2018-09-30T17:29:02.885Z,89.40
2018-09-30T17:31:31.468Z,89.70
2018-09-30T17:33:59.973Z,89.30
2018-09-30T17:36:28.487Z,90.20
2018-09-30T17:38:57.051Z,90.50
2018-09-30T17:41:25.565Z,90.80
2018-09-30T17:43:54.121Z,90.70
2018-09-30T17:46:22.626Z,90.70
2018-09-30T17:48:51.153Z,90.40
2018-09-30T17:51:19.696Z,90.10
2018-09-30T17:53:48.586Z,90.10
2018-09-30T17:56:17.174Z,90.00
2018-09-30T17:58:45.716Z,90.00
